Time;durP1;ratioP1;P1;durP2;ratioP2;P2;SDS_P1;SDS_P2;PMS_P1;PMS_P2;Temp;Humidity;BMP_temperature;BMP_pressure;BME280_temperature;BME280_humidity;BME280_pressure;Samples;Min_cycle;Max_cycle;Signal;HPM_P1;HPM_P2
2022/12/03 00:02:03;;;;;;;44.58;16.65;;;;;;;0.91;100.00;99466.81;4469595;32;20108;-72
2022/12/03 00:04:30;;;;;;;47.08;16.48;;;;;;;0.96;100.00;99470.09;4469620;32;20171;-71
2022/12/03 00:06:57;;;;;;;41.33;16.15;;;;;;;1.02;100.00;99469.84;4469650;32;20592;-72
2022/12/03 00:09:24;;;;;;;48.78;17.83;;;;;;;0.98;100.00;99476.84;4480865;32;20108;-72
2022/12/03 00:11:52;;;;;;;42.75;16.17;;;;;;;0.96;100.00;99481.22;4485126;32;20592;-72
2022/12/03 00:14:19;;;;;;;52.55;18.20;;;;;;;1.12;100.00;99471.16;4485403;31;20088;-72
2022/12/03 00:16:46;;;;;;;51.35;16.90;;;;;;;1.05;100.00;99478.28;4485216;31;20084;-72
2022/12/03 00:19:13;;;;;;;51.47;16.73;;;;;;;1.02;100.00;99483.56;4485382;31;20093;-72
2022/12/03 00:21:40;;;;;;;51.90;16.98;;;;;;;1.12;100.00;99486.66;4473175;31;20171;-72
2022/12/03 00:24:07;;;;;;;39.83;17.33;;;;;;;1.03;100.00;99474.94;4469274;32;20104;-72
2022/12/03 00:26:35;;;;;;;50.63;19.15;;;;;;;1.03;100.00;99486.97;4469798;32;20104;-72
2022/12/03 00:29:02;;;;;;;33.00;15.13;;;;;;;0.95;100.00;99484.69;4469702;32;20443;-72
2022/12/03 00:31:29;;;;;;;43.92;16.45;;;;;;;0.97;100.00;99482.06;4469621;32;20100;-72
2022/12/03 00:33:57;;;;;;;42.20;15.73;;;;;;;0.86;100.00;99485.06;4469444;32;20209;-72
2022/12/03 00:36:24;;;;;;;42.55;16.17;;;;;;;1.02;100.00;99488.72;4469041;32;20106;-72
2022/12/03 00:38:52;;;;;;;46.28;16.37;;;;;;;1.07;100.00;99483.41;4469333;32;20510;-72
2022/12/03 00:41:20;;;;;;;48.85;16.33;;;;;;;1.18;100.00;99481.25;4469554;32;20504;-72
2022/12/03 00:43:47;;;;;;;40.97;16.40;;;;;;;1.14;100.00;99490.00;4469653;32;20532;-72
2022/12/03 00:46:14;;;;;;;49.03;17.15;;;;;;;1.14;100.00;99495.16;4469483;32;20115;-72
2022/12/03 00:48:47;;;;;;;49.65;17.12;;;;;;;1.11;100.00;99495.28;4469240;32;20108;-72
2022/12/03 00:51:14;;;;;;;44.60;16.00;;;;;;;1.17;100.00;99489.06;4469472;32;20206;-72
2022/12/03 00:53:41;;;;;;;44.80;16.90;;;;;;;1.09;100.00;99494.50;4469395;32;20116;-72
2022/12/03 00:56:09;;;;;;;43.90;17.85;;;;;;;1.09;100.00;99497.09;4469372;32;20560;-72
2022/12/03 00:58:36;;;;;;;40.95;16.83;;;;;;;1.17;100.00;99492.47;4469085;32;20093;-72
2022/12/03 01:01:03;;;;;;;40.00;17.60;;;;;;;1.16;100.00;99488.19;4469381;32;20100;-72
2022/12/03 01:03:30;;;;;;;50.17;18.75;;;;;;;1.21;100.00;99477.69;4469089;32;20187;-72
2022/12/03 01:05:57;;;;;;;45.17;17.20;;;;;;;1.19;100.00;99480.31;4469570;32;20096;-72
2022/12/03 01:08:24;;;;;;;43.92;16.95;;;;;;;1.32;100.00;99485.88;4473664;32;20485;-72
2022/12/03 01:10:52;;;;;;;46.40;16.95;;;;;;;1.30;100.00;99484.22;4485082;31;20103;-72
2022/12/03 01:13:19;;;;;;;43.22;16.17;;;;;;;1.20;100.00;99483.78;4484633;31;20152;-72
2022/12/03 01:15:46;;;;;;;48.80;16.37;;;;;;;1.20;100.00;99481.19;4485213;32;20127;-72
2022/12/03 01:18:13;;;;;;;45.90;16.23;;;;;;;1.25;100.00;99479.25;4484678;32;20156;-72
2022/12/03 01:20:40;;;;;;;42.95;16.83;;;;;;;1.24;100.00;99473.25;4478827;31;20537;-72
2022/12/03 01:23:07;;;;;;;44.95;16.92;;;;;;;1.32;100.00;99482.44;4469093;32;20454;-72
2022/12/03 01:25:34;;;;;;;41.95;16.98;;;;;;;1.37;100.00;99480.50;4469045;32;20092;-72
2022/12/03 01:28:01;;;;;;;43.92;16.35;;;;;;;1.27;100.00;99485.19;4468780;32;20108;-72
2022/12/03 01:32:15;;;;;;;51.55;16.70;;;;;;;1.32;100.00;99483.28;4469070;32;20101;-72
2022/12/03 01:33:16;;;;;;;46.75;18.08;;;;;;;1.36;100.00;99484.00;4468811;32;20081;-72
2022/12/03 01:35:43;;;;;;;41.60;16.62;;;;;;;1.22;100.00;99485.38;4468957;32;20092;-72
2022/12/03 01:38:10;;;;;;;46.75;18.27;;;;;;;1.17;100.00;99495.03;4468668;32;20101;-72
2022/12/03 01:40:37;;;;;;;50.80;18.25;;;;;;;1.22;100.00;99487.12;4468938;32;20123;-72
2022/12/03 01:43:04;;;;;;;50.25;18.20;;;;;;;1.20;100.00;99479.44;4469156;32;20590;-72
2022/12/03 01:45:34;;;;;;;49.63;17.37;;;;;;;1.17;100.00;99483.88;4468647;32;20179;-72
2022/12/03 01:48:01;;;;;;;51.10;18.95;;;;;;;1.29;100.00;99490.28;4467524;32;20155;-72
2022/12/03 01:50:30;;;;;;;49.50;17.17;;;;;;;1.27;100.00;99489.53;4470222;32;20160;-72
2022/12/03 01:52:59;;;;;;;47.45;17.30;;;;;;;1.30;100.00;99494.56;4470740;32;20115;-71
2022/12/03 01:55:27;;;;;;;42.03;16.25;;;;;;;1.31;100.00;99493.66;4470457;32;20473;-71
2022/12/03 01:57:56;;;;;;;43.92;16.58;;;;;;;1.27;100.00;99486.94;4469497;32;20120;-71
2022/12/03 02:00:28;;;;;;;46.78;18.12;;;;;;;1.35;100.00;99482.34;4470375;32;20125;-71
2022/12/03 02:02:59;;;;;;;47.65;16.92;;;;;;;1.35;100.00;99484.91;4470250;32;20084;-72
2022/12/03 02:05:30;;;;;;;41.88;16.40;;;;;;;1.23;100.00;99484.47;4470582;32;20426;-72
2022/12/03 02:07:58;;;;;;;44.78;16.83;;;;;;;1.29;100.00;99482.53;4472438;32;20149;-72
2022/12/03 02:10:31;;;;;;;52.92;17.12;;;;;;;1.33;100.00;99484.13;4486154;31;20093;-72
2022/12/03 02:13:01;;;;;;;45.97;16.37;;;;;;;1.28;100.00;99476.56;4485148;32;20108;-72
2022/12/03 02:15:28;;;;;;;52.72;18.37;;;;;;;1.26;100.00;99477.50;4484880;32;20466;-72
2022/12/03 02:17:55;;;;;;;40.88;16.85;;;;;;;1.27;100.00;99477.44;4486105;31;20105;-72
2022/12/03 02:20:23;;;;;;;46.78;16.85;;;;;;;1.23;100.00;99476.72;4481987;31;20442;-72
2022/12/03 02:22:53;;;;;;;46.75;17.62;;;;;;;1.38;100.00;99477.03;4470474;32;20157;-72
2022/12/03 02:25:22;;;;;;;50.10;17.40;;;;;;;1.39;100.00;99484.72;4470559;32;20489;-72
2022/12/03 02:27:52;;;;;;;49.72;18.37;;;;;;;1.40;100.00;99481.22;4469245;32;20128;-72
2022/12/03 02:30:21;;;;;;;39.05;16.40;;;;;;;1.39;100.00;99476.13;4470273;32;20104;-72
2022/12/03 02:32:49;;;;;;;49.00;17.08;;;;;;;1.44;100.00;99474.22;4470227;32;20108;-72
2022/12/03 02:35:19;;;;;;;47.17;17.02;;;;;;;1.50;100.00;99475.69;4468920;32;20159;-72
2022/12/03 02:37:50;;;;;;;50.47;18.02;;;;;;;1.47;100.00;99478.38;4470227;32;20093;-72
2022/12/03 02:40:23;;;;;;;41.05;16.98;;;;;;;1.38;100.00;99471.88;4469270;32;20355;-72
2022/12/03 02:42:54;;;;;;;49.28;16.67;;;;;;;1.50;100.00;99476.53;4469066;32;20089;-72
2022/12/03 02:45:35;;;;;;;44.75;17.67;;;;;;;1.48;100.00;99480.06;4470380;32;20474;-72
2022/12/03 02:48:23;;;;;;;47.78;18.00;;;;;;;1.46;100.00;99474.16;4469080;32;20592;-72
2022/12/03 02:50:52;;;;;;;46.88;19.00;;;;;;;1.24;100.00;99473.25;4470214;32;20193;-72
2022/12/03 02:53:34;;;;;;;41.10;18.83;;;;;;;1.37;100.00;99475.34;4470125;32;20160;-72
2022/12/03 02:56:02;;;;;;;48.17;17.33;;;;;;;1.22;100.00;99474.22;4470179;32;20536;-72
2022/12/03 02:58:31;;;;;;;44.90;19.05;;;;;;;1.31;100.00;99475.59;4469995;32;20564;-72
2022/12/03 03:01:00;;;;;;;52.38;19.37;;;;;;;1.23;100.00;99476.72;4468658;32;20112;-72
2022/12/03 03:03:28;;;;;;;46.85;18.35;;;;;;;1.26;100.00;99474.94;4469985;32;20131;-72
2022/12/03 03:05:55;;;;;;;46.90;17.48;;;;;;;1.25;100.00;99481.84;4468627;32;20111;-72
2022/12/03 03:08:23;;;;;;;54.47;18.20;;;;;;;1.19;100.00;99480.31;4474589;32;20126;-72
2022/12/03 03:10:51;;;;;;;46.78;16.50;;;;;;;1.17;100.00;99479.56;4484340;32;20154;-72
2022/12/03 03:13:20;;;;;;;47.60;18.27;;;;;;;1.32;100.00;99485.03;4485772;31;20155;-72
2022/12/03 03:15:47;;;;;;;43.60;17.55;;;;;;;1.32;100.00;99485.88;4485724;31;20481;-72
2022/12/03 03:18:15;;;;;;;47.65;17.85;;;;;;;1.36;100.00;99491.72;4485743;31;20553;-71
2022/12/03 03:20:42;;;;;;;47.05;18.40;;;;;;;1.40;100.00;99491.53;4478323;32;20161;-72
2022/12/03 03:23:09;;;;;;;54.92;19.08;;;;;;;1.41;100.00;99489.81;4469940;32;20104;-72
2022/12/03 03:25:38;;;;;;;44.15;17.42;;;;;;;1.38;100.00;99485.63;4469849;32;20522;-72
2022/12/03 03:28:06;;;;;;;43.72;16.67;;;;;;;1.28;100.00;99478.31;4468639;32;20101;-72
2022/12/03 03:30:34;;;;;;;60.78;19.55;;;;;;;1.32;100.00;99479.88;4469909;32;20555;-71
2022/12/03 03:33:01;;;;;;;45.10;18.02;;;;;;;1.19;100.00;99477.75;4469807;32;20446;-71
2022/12/03 03:35:28;;;;;;;50.78;18.30;;;;;;;1.27;100.00;99479.19;4469846;32;20097;-72
2022/12/03 03:37:57;;;;;;;47.40;18.48;;;;;;;1.31;100.00;99479.00;4470240;32;20089;-71
2022/12/03 03:40:25;;;;;;;42.62;17.02;;;;;;;1.37;100.00;99476.19;4469888;32;20109;-71
2022/12/03 03:42:54;;;;;;;43.78;17.92;;;;;;;1.43;100.00;99475.09;4468473;32;20085;-72
2022/12/03 03:45:22;;;;;;;50.12;18.87;;;;;;;1.34;100.00;99478.06;4469836;32;20529;-72
2022/12/03 03:47:57;;;;;;;49.40;18.35;;;;;;;1.24;100.00;99473.25;4469894;32;20158;-71
2022/12/03 03:50:25;;;;;;;46.15;16.37;;;;;;;1.30;100.00;99479.06;4469807;32;20161;-71
2022/12/03 03:52:53;;;;;;;51.10;18.33;;;;;;;1.32;100.00;99474.72;4469709;32;20160;-71
2022/12/03 03:55:20;;;;;;;52.10;18.55;;;;;;;1.32;100.00;99482.44;4469667;32;20217;-71
2022/12/03 03:57:48;;;;;;;49.90;18.60;;;;;;;1.41;100.00;99484.66;4469754;32;20148;-71
2022/12/03 04:00:15;;;;;;;46.00;18.40;;;;;;;1.40;100.00;99481.22;4469685;32;20101;-72
2022/12/03 04:02:43;;;;;;;46.45;16.80;;;;;;;1.43;100.00;99477.69;4469451;32;20096;-71
2022/12/03 04:05:17;;;;;;;39.42;16.25;;;;;;;1.46;100.00;99487.88;4469518;32;20088;-71
2022/12/03 04:07:45;;;;;;;49.13;18.90;;;;;;;1.38;100.00;99488.19;4468886;32;20148;-72
2022/12/03 04:13:00;;;;;;;56.28;19.00;;;;;;;1.46;100.00;99487.06;4484629;31;20189;-72
2022/12/03 04:15:27;;;;;;;45.92;17.50;;;;;;;1.44;100.00;99483.69;4485352;31;20100;-72
2022/12/03 04:20:40;;;;;;;45.42;17.62;;;;;;;1.38;100.00;99483.03;4479608;31;20207;-72
2022/12/03 04:23:07;;;;;;;37.53;15.32;;;;;;;1.40;100.00;99481.22;4469596;32;20149;-72
2022/12/03 04:36:38;;;;;;;54.00;18.48;;;;;;;1.48;100.00;99488.66;4469461;32;20089;-72
2022/12/03 04:39:06;;;;;;;50.90;16.90;;;;;;;1.53;100.00;99484.16;4469386;32;20199;-72
2022/12/03 04:41:33;;;;;;;48.63;19.33;;;;;;;1.46;100.00;99484.47;4469403;32;20139;-72
2022/12/03 04:46:46;;;;;;;52.47;18.85;;;;;;;1.47;100.00;99487.00;4469403;32;20073;-71
2022/12/03 04:49:13;;;;;;;49.90;18.42;;;;;;;1.48;100.00;99486.06;4469443;32;20101;-72
2022/12/03 04:51:40;;;;;;;53.15;18.33;;;;;;;1.45;100.00;99483.63;4469273;32;20164;-72
2022/12/03 04:54:07;;;;;;;54.55;18.50;;;;;;;1.36;100.00;99473.66;4469241;32;20143;-72
2022/12/03 04:56:34;;;;;;;53.20;19.25;;;;;;;1.43;100.00;99480.25;4469300;32;20111;-72
2022/12/03 04:59:01;;;;;;;50.25;18.60;;;;;;;1.40;100.00;99478.62;4469102;32;20112;-71
2022/12/03 05:01:28;;;;;;;49.20;18.52;;;;;;;1.40;100.00;99488.97;4469257;32;20101;-71
2022/12/03 05:03:56;;;;;;;46.45;18.77;;;;;;;1.46;100.00;99495.63;4469302;32;20458;-70
2022/12/03 05:06:23;;;;;;;61.37;21.20;;;;;;;1.30;100.00;99486.81;4469320;32;20141;-72
2022/12/03 05:08:50;;;;;;;51.63;19.65;;;;;;;1.36;100.00;99492.59;4476725;32;20553;-71
2022/12/03 05:11:17;;;;;;;56.40;18.67;;;;;;;1.24;100.00;99485.31;4484982;32;20152;-71
2022/12/03 05:13:44;;;;;;;53.90;20.23;;;;;;;1.30;100.00;99494.56;4484709;31;20121;-72
2022/12/03 05:16:11;;;;;;;57.25;17.92;;;;;;;1.04;100.00;99509.31;4484820;31;20652;-72
2022/12/03 05:18:38;;;;;;;52.92;19.83;;;;;;;1.06;100.00;99513.53;4484855;31;20088;-72
2022/12/03 05:21:05;;;;;;;54.78;19.15;;;;;;;1.09;100.00;99506.56;4476271;31;20123;-72
2022/12/03 05:23:33;;;;;;;43.72;17.50;;;;;;;1.15;100.00;99499.44;4468981;32;20124;-71
2022/12/03 05:26:00;;;;;;;52.83;19.85;;;;;;;1.32;100.00;99498.78;4469343;32;20184;-71
2022/12/03 05:28:27;;;;;;;54.22;20.37;;;;;;;1.35;100.00;99497.81;4468976;32;20105;-72
2022/12/03 05:30:54;;;;;;;55.72;17.98;;;;;;;1.24;100.00;99500.78;4469198;32;20490;-71
2022/12/03 05:33:21;;;;;;;59.85;18.23;;;;;;;1.32;100.00;99506.50;4468843;32;20160;-71
2022/12/03 05:35:48;;;;;;;46.33;17.30;;;;;;;1.32;100.00;99506.50;4469172;32;20667;-71
2022/12/03 05:38:15;;;;;;;57.53;19.98;;;;;;;1.34;100.00;99517.59;4469216;32;20131;-71
2022/12/03 05:40:43;;;;;;;64.40;20.52;;;;;;;1.28;100.00;99506.69;4469068;32;20442;-71
2022/12/03 05:43:10;;;;;;;57.30;19.80;;;;;;;1.01;100.00;99514.59;4468729;32;20100;-71
2022/12/03 05:45:39;;;;;;;60.88;20.50;;;;;;;1.12;100.00;99525.38;4469090;32;20127;-71
2022/12/03 05:48:09;;;;;;;55.12;20.00;;;;;;;1.22;100.00;99520.66;4469023;32;20165;-71
2022/12/03 05:50:38;;;;;;;80.93;21.25;;;;;;;1.26;100.00;99523.97;4469268;32;20589;-71
2022/12/03 05:53:13;;;;;;;71.97;17.60;;;;;;;1.33;100.00;99535.75;4468697;32;20568;-71
2022/12/03 05:55:40;;;;;;;73.43;18.30;;;;;;;1.31;100.00;99530.63;4468804;32;20097;-71
2022/12/03 05:58:07;;;;;;;66.22;19.77;;;;;;;1.25;100.00;99530.88;4468564;32;20165;-71
2022/12/03 06:00:37;;;;;;;57.70;17.60;;;;;;;1.17;100.00;99532.94;4468521;32;20152;-71
2022/12/03 06:03:09;;;;;;;89.05;21.08;;;;;;;1.28;100.00;99532.50;4468322;32;20194;-72
2022/12/03 06:05:36;;;;;;;82.05;19.80;;;;;;;1.19;100.00;99525.94;4468509;32;20464;-71
2022/12/03 06:08:04;;;;;;;61.75;19.50;;;;;;;1.16;100.00;99521.75;4470743;32;20104;-72
2022/12/03 06:10:31;;;;;;;64.28;18.87;;;;;;;1.29;100.00;99529.88;4484219;32;20104;-72
2022/12/03 06:12:58;;;;;;;74.45;20.80;;;;;;;1.35;100.00;99531.38;4483989;31;20579;-72
2022/12/03 06:15:25;;;;;;;74.97;16.95;;;;;;;1.32;100.00;99529.75;4484246;31;20229;-72
2022/12/03 06:17:52;;;;;;;60.22;17.67;;;;;;;1.33;100.00;99521.09;4484147;31;20605;-72
2022/12/03 06:20:20;;;;;;;83.82;19.70;;;;;;;1.15;100.00;99508.91;4480475;32;20122;-72
2022/12/03 06:22:47;;;;;;;69.65;17.80;;;;;;;1.07;100.00;99509.19;4468370;32;20115;-71
2022/12/03 06:25:15;;;;;;;83.55;21.33;;;;;;;1.13;100.00;99508.97;4468097;32;20152;-72
2022/12/03 06:27:43;;;;;;;89.47;19.92;;;;;;;1.20;100.00;99519.91;4468242;32;20089;-72
2022/12/03 06:30:11;;;;;;;53.63;18.62;;;;;;;1.09;100.00;99514.28;4468235;32;20100;-72
2022/12/03 06:32:39;;;;;;;38.80;15.38;;;;;;;1.24;100.00;99518.84;4467939;32;20398;-72
2022/12/03 06:35:06;;;;;;;60.15;16.20;;;;;;;1.24;100.00;99511.13;4468871;32;20111;-72
2022/12/03 06:37:33;;;;;;;61.20;19.77;;;;;;;1.19;100.00;99502.72;4470170;32;20169;-72
2022/12/03 06:40:00;;;;;;;46.78;18.17;;;;;;;1.10;100.00;99513.41;4470338;32;20123;-71
2022/12/03 06:42:27;;;;;;;58.95;19.73;;;;;;;1.20;100.00;99520.72;4470304;32;20148;-71
2022/12/03 06:44:54;;;;;;;57.28;18.05;;;;;;;1.32;100.00;99523.75;4469781;32;20536;-72
2022/12/03 06:47:22;;;;;;;50.58;18.12;;;;;;;1.38;100.00;99514.00;4470309;32;20348;-71
2022/12/03 06:49:49;;;;;;;48.42;19.20;;;;;;;1.37;100.00;99516.66;4470228;32;20165;-71
2022/12/03 06:52:16;;;;;;;50.15;18.92;;;;;;;1.32;100.00;99531.50;4470379;32;20096;-72
2022/12/03 06:54:44;;;;;;;46.50;17.50;;;;;;;1.40;100.00;99526.84;4470175;32;20457;-71
2022/12/03 06:57:11;;;;;;;50.28;18.30;;;;;;;1.39;100.00;99535.50;4470331;32;20089;-71
2022/12/03 06:59:38;;;;;;;54.38;18.83;;;;;;;1.54;100.00;99534.88;4469974;32;20093;-72
2022/12/03 07:02:05;;;;;;;54.58;19.25;;;;;;;1.56;100.00;99527.94;4469934;32;20298;-72
2022/12/03 07:04:32;;;;;;;55.00;18.35;;;;;;;1.69;100.00;99528.25;4469840;32;20088;-71
2022/12/03 07:06:59;;;;;;;55.58;18.05;;;;;;;1.77;100.00;99531.41;4470250;32;20144;-72
2022/12/03 07:09:27;;;;;;;48.55;17.15;;;;;;;1.73;100.00;99536.75;4481390;32;20450;-72
2022/12/03 07:11:54;;;;;;;51.58;17.83;;;;;;;1.78;100.00;99532.22;4485801;31;20154;-71
2022/12/03 07:14:21;;;;;;;46.30;16.98;;;;;;;1.81;100.00;99542.44;4485819;31;20606;-72
2022/12/03 07:16:48;;;;;;;49.08;16.65;;;;;;;1.77;100.00;99539.16;4485728;31;20093;-71
2022/12/03 07:19:16;;;;;;;39.50;16.10;;;;;;;1.90;100.00;99533.47;4485912;31;20114;-71
2022/12/03 07:21:42;;;;;;;56.25;19.27;;;;;;;1.90;100.00;99523.97;4473153;31;20119;-72
2022/12/03 07:24:10;;;;;;;49.88;17.12;;;;;;;1.81;100.00;99532.09;4469971;32;20156;-72
2022/12/03 07:26:37;;;;;;;52.45;17.52;;;;;;;1.86;100.00;99537.94;4469994;32;20088;-72
2022/12/03 07:29:04;;;;;;;41.03;17.48;;;;;;;1.85;100.00;99533.66;4469759;32;20176;-72
2022/12/03 07:31:32;;;;;;;45.53;17.35;;;;;;;1.94;100.00;99538.44;4468698;32;20151;-72
2022/12/03 07:33:59;;;;;;;51.58;18.35;;;;;;;2.16;100.00;99537.53;4469622;32;20089;-72
2022/12/03 07:36:26;;;;;;;48.42;18.15;;;;;;;2.27;100.00;99540.53;4469950;32;20458;-72
2022/12/03 07:38:56;;;;;;;49.67;17.87;;;;;;;2.16;100.00;99534.94;4469846;32;20156;-72
2022/12/03 07:41:23;;;;;;;48.58;18.25;;;;;;;2.22;100.00;99531.28;4469888;32;20152;-72
2022/12/03 07:43:50;;;;;;;55.22;19.60;;;;;;;2.15;100.00;99530.72;4470172;32;20113;-72
2022/12/03 07:46:18;;;;;;;44.80;17.35;;;;;;;2.06;100.00;99520.72;4468973;32;20123;-72
2022/12/03 07:48:45;;;;;;;42.75;18.33;;;;;;;2.14;100.00;99518.69;4469772;32;20660;-72
2022/12/03 07:51:12;;;;;;;54.03;19.33;;;;;;;2.26;100.00;99522.50;4469904;32;20459;-72
2022/12/03 07:53:41;;;;;;;50.88;20.55;;;;;;;2.25;100.00;99521.63;4469803;32;20170;-72
2022/12/03 07:56:08;;;;;;;49.65;17.75;;;;;;;2.16;100.00;99519.44;4469808;32;20490;-72
2022/12/03 07:58:35;;;;;;;52.45;20.95;;;;;;;2.24;100.00;99525.16;4467082;32;82938;-72
2022/12/03 08:01:03;;;;;;;55.70;19.75;;;;;;;2.36;100.00;99522.94;4469752;32;20134;-72
2022/12/03 08:03:30;;;;;;;46.03;18.35;;;;;;;2.51;100.00;99527.41;4469781;32;20131;-72
2022/12/03 08:05:57;;;;;;;43.05;17.27;;;;;;;2.40;100.00;99532.25;4469798;32;20089;-72
2022/12/03 08:08:24;;;;;;;50.85;18.95;;;;;;;2.41;100.00;99534.75;4474363;32;20179;-72
2022/12/03 08:10:52;;;;;;;44.22;18.10;;;;;;;2.52;100.00;99542.03;4485625;31;20130;-72
2022/12/03 08:13:19;;;;;;;49.58;19.80;;;;;;;2.60;100.00;99547.72;4485258;31;20093;-72
2022/12/03 08:15:46;;;;;;;50.97;19.75;;;;;;;2.60;100.00;99552.88;4485240;31;20156;-72
2022/12/03 08:18:16;;;;;;;51.25;20.40;;;;;;;2.61;100.00;99545.97;4485545;31;20155;-72
2022/12/03 08:20:45;;;;;;;56.45;21.58;;;;;;;2.77;100.00;99548.72;4479189;31;20469;-72
2022/12/03 08:23:15;;;;;;;41.90;16.95;;;;;;;2.83;100.00;99545.84;4469663;32;20532;-72
2022/12/03 08:25:43;;;;;;;50.65;18.33;;;;;;;2.67;100.00;99536.19;4469477;32;20123;-72
2022/12/03 08:28:18;;;;;;;46.65;19.00;;;;;;;2.65;100.00;99535.44;4469843;32;20115;-72
2022/12/03 08:31:11;;;;;;;46.30;20.25;;;;;;;2.46;100.00;99526.78;4469405;32;20100;-72
2022/12/03 08:33:39;;;;;;;41.75;18.10;;;;;;;2.58;100.00;99528.84;4469530;32;20362;-72
2022/12/03 08:36:30;;;;;;;48.28;17.85;;;;;;;2.56;100.00;99525.50;4469412;32;20176;-72
2022/12/03 08:39:05;;;;;;;58.22;18.95;;;;;;;2.52;100.00;99523.09;4468385;32;20118;-72
2022/12/03 08:44:28;;;;;;;66.53;21.70;;;;;;;2.65;100.00;99542.34;4469693;32;20506;-71
2022/12/03 08:47:06;;;;;;;56.08;20.00;;;;;;;2.59;100.00;99556.41;4469511;32;20204;-72
2022/12/03 08:49:33;;;;;;;54.65;19.20;;;;;;;2.77;100.00;99559.91;4469501;32;20155;-72
2022/12/03 08:52:00;;;;;;;55.25;19.52;;;;;;;2.87;100.00;99565.50;4469406;32;20116;-71
2022/12/03 08:54:28;;;;;;;49.38;19.50;;;;;;;2.87;100.00;99570.69;4467965;32;20406;-72
2022/12/03 08:56:55;;;;;;;61.80;23.25;;;;;;;3.04;100.00;99569.09;4469375;32;20501;-71
2022/12/03 08:59:28;;;;;;;62.22;22.40;;;;;;;2.93;100.00;99565.22;4468776;32;20115;-71
2022/12/03 09:01:57;;;;;;;54.90;21.15;;;;;;;3.04;100.00;99556.16;4469664;32;20402;-72
2022/12/03 09:04:45;;;;;;;56.25;19.58;;;;;;;3.15;100.00;99553.91;4469067;32;20115;-71
2022/12/03 09:07:12;;;;;;;49.90;21.77;;;;;;;3.16;100.00;99556.44;4469194;32;20099;-72
2022/12/03 09:09:39;;;;;;;63.22;21.90;;;;;;;3.18;100.00;99551.19;4481926;32;20194;-72
2022/12/03 09:12:06;;;;;;;57.53;22.10;;;;;;;3.17;100.00;99547.75;4484941;31;20175;-72
2022/12/03 09:14:33;;;;;;;57.10;20.75;;;;;;;3.23;100.00;99540.62;4484944;31;20142;-71
2022/12/03 09:17:01;;;;;;;60.60;23.12;;;;;;;3.16;100.00;99540.91;4484680;31;20108;-71
2022/12/03 09:19:30;;;;;;;64.00;22.40;;;;;;;3.22;100.00;99544.94;4484782;31;20104;-72
2022/12/03 09:21:57;;;;;;;59.97;23.00;;;;;;;3.40;100.00;99552.78;4470533;31;20616;-72
2022/12/03 09:24:25;;;;;;;54.08;21.87;;;;;;;3.50;100.00;99544.50;4468945;32;20169;-71
2022/12/03 09:26:52;;;;;;;57.10;22.48;;;;;;;3.36;100.00;99529.63;4469198;32;20097;-71
2022/12/03 09:29:19;;;;;;;49.45;21.37;;;;;;;3.43;100.00;99544.84;4468962;32;20100;-71
2022/12/03 09:31:46;;;;;;;54.78;20.60;;;;;;;3.45;100.00;99535.25;4468904;32;20634;-72
2022/12/03 09:34:13;;;;;;;47.80;18.42;;;;;;;3.56;100.00;99538.19;4469109;32;20121;-72
2022/12/03 09:36:40;;;;;;;60.03;22.90;;;;;;;3.43;100.00;99537.91;4468884;32;20126;-72
2022/12/03 09:39:08;;;;;;;56.30;22.15;;;;;;;3.57;100.00;99541.59;4469014;32;20105;-72
2022/12/03 09:41:35;;;;;;;49.15;20.77;;;;;;;3.48;100.00;99537.69;4469260;32;20487;-72
2022/12/03 09:44:02;;;;;;;57.88;21.08;;;;;;;3.63;100.00;99538.72;4468981;32;20153;-72
2022/12/03 09:46:33;;;;;;;60.58;22.13;;;;;;;3.68;100.00;99536.72;4467914;32;20097;-72
2022/12/03 09:49:01;;;;;;;55.80;19.55;;;;;;;3.76;100.00;99528.63;4468877;32;20092;-72
2022/12/03 09:51:31;;;;;;;53.50;19.65;;;;;;;3.79;100.00;99531.06;4468941;32;20114;-71
2022/12/03 09:53:59;;;;;;;42.90;16.98;;;;;;;4.02;100.00;99529.91;4468670;32;20107;-71
2022/12/03 09:56:26;;;;;;;48.13;19.48;;;;;;;3.98;100.00;99531.81;4468624;32;20514;-71
2022/12/03 09:58:54;;;;;;;46.28;18.62;;;;;;;4.08;100.00;99534.78;4468643;32;20126;-72
2022/12/03 10:01:21;;;;;;;46.25;20.00;;;;;;;4.14;100.00;99518.09;4467207;32;20111;-71
2022/12/03 10:03:53;;;;;;;50.55;19.58;;;;;;;3.94;100.00;99519.06;4467443;32;20124;-71
2022/12/03 10:06:22;;;;;;;46.70;20.40;;;;;;;3.98;100.00;99518.00;4468593;32;20123;-72
2022/12/03 10:08:51;;;;;;;45.00;19.37;;;;;;;4.05;100.00;99520.22;4475857;32;20096;-71
2022/12/03 10:11:20;;;;;;;54.28;20.25;;;;;;;4.13;100.00;99516.41;4484756;32;20628;-72
2022/12/03 10:13:51;;;;;;;52.40;21.83;;;;;;;4.18;100.00;99520.44;4485094;32;20081;-72
2022/12/03 10:16:19;;;;;;;54.30;20.02;;;;;;;4.24;100.00;99519.28;4486487;31;20162;-72
2022/12/03 10:18:49;;;;;;;43.08;18.30;;;;;;;4.26;100.00;99512.25;4486076;32;20155;-72
2022/12/03 10:21:21;;;;;;;50.47;19.67;;;;;;;4.13;100.00;99509.44;4475046;32;20097;-72
2022/12/03 10:23:49;;;;;;;52.25;21.52;;;;;;;4.31;100.00;99506.84;4469172;32;20089;-72
2022/12/03 10:26:36;;;;;;;49.92;19.35;;;;;;;4.40;100.00;99509.78;4470474;32;20107;-71
2022/12/03 10:29:11;;;;;;;42.47;16.17;;;;;;;4.44;100.00;99497.50;4469072;32;20127;-71
2022/12/03 10:31:39;;;;;;;46.58;18.27;;;;;;;4.42;100.00;99489.81;4470395;32;20084;-71
2022/12/03 10:34:08;;;;;;;52.33;20.77;;;;;;;4.46;100.00;99487.88;4470318;32;20097;-71
2022/12/03 10:36:35;;;;;;;46.92;19.60;;;;;;;4.47;100.00;99489.56;4470278;32;20119;-71
2022/12/03 10:39:07;;;;;;;50.20;20.45;;;;;;;4.52;100.00;99482.37;4470493;32;20609;-71
2022/12/03 10:41:36;;;;;;;45.83;17.85;;;;;;;4.61;100.00;99492.25;4470284;32;20127;-72
2022/12/03 10:44:17;;;;;;;49.72;21.40;;;;;;;4.65;100.00;99477.38;4469105;32;20430;-71
2022/12/03 10:46:45;;;;;;;45.95;19.42;;;;;;;4.93;100.00;99476.69;4470285;32;20569;-72
2022/12/03 10:49:17;;;;;;;43.42;18.25;;;;;;;5.10;100.00;99474.94;4470411;32;20089;-72
2022/12/03 10:51:46;;;;;;;43.63;18.15;;;;;;;4.92;100.00;99464.66;4470098;32;20648;-72
2022/12/03 10:54:24;;;;;;;42.40;18.02;;;;;;;4.97;100.00;99467.84;4469000;32;20081;-72
2022/12/03 10:56:51;;;;;;;44.45;18.40;;;;;;;4.95;100.00;99466.22;4470061;32;20163;-72
2022/12/03 10:59:21;;;;;;;52.55;18.80;;;;;;;5.01;100.00;99459.87;4470071;32;20179;-71
2022/12/03 11:01:49;;;;;;;45.30;20.20;;;;;;;5.04;100.00;99460.56;4470073;32;20097;-71
2022/12/03 11:04:34;;;;;;;42.28;17.75;;;;;;;5.08;100.00;99462.03;4470114;32;20120;-71
2022/12/03 11:07:02;;;;;;;41.72;18.15;;;;;;;5.22;100.00;99461.25;4470223;32;20117;-72
2022/12/03 11:09:31;;;;;;;47.03;19.00;;;;;;;5.38;100.00;99461.25;4480541;32;20150;-72
2022/12/03 11:12:03;;;;;;;42.90;19.27;;;;;;;5.51;100.00;99458.78;4484395;32;20499;-72
2022/12/03 11:17:42;;;;;;;43.10;18.67;;;;;;;5.59;100.00;99447.97;4485791;31;20088;-72
2022/12/03 11:20:18;;;;;;;50.38;19.98;;;;;;;5.65;100.00;99442.41;4483255;31;20453;-72
2022/12/03 11:22:58;;;;;;;39.03;18.65;;;;;;;5.65;100.00;99434.63;4470250;32;20093;-71
2022/12/03 11:25:25;;;;;;;38.28;16.30;;;;;;;5.72;100.00;99437.69;4470051;32;20150;-72
2022/12/03 11:28:10;;;;;;;43.22;19.77;;;;;;;5.77;100.00;99430.44;4469890;32;20134;-72
2022/12/03 11:30:50;;;;;;;41.90;15.73;;;;;;;5.85;100.00;99442.06;4470041;32;20084;-72
2022/12/03 11:33:31;;;;;;;34.08;14.23;;;;;;;5.75;100.00;99438.31;4470055;32;20227;-72
2022/12/03 11:36:01;;;;;;;30.10;14.50;;;;;;;5.61;100.00;99427.91;4469890;32;20111;-72
2022/12/03 11:38:39;;;;;;;32.38;14.52;;;;;;;5.74;100.00;99433.22;4469975;32;20156;-72
2022/12/03 11:41:32;;;;;;;38.03;15.75;;;;;;;5.72;100.00;99435.91;4470046;32;20216;-72
2022/12/03 11:44:03;;;;;;;37.08;14.35;;;;;;;5.69;100.00;99425.69;4470161;32;20160;-71
2022/12/03 11:46:38;;;;;;;32.50;14.27;;;;;;;5.77;100.00;99431.28;4468851;32;20426;-71
2022/12/03 11:49:34;;;;;;;30.73;14.85;;;;;;;5.75;100.00;99419.31;4469022;32;20185;-72
2022/12/03 11:52:17;;;;;;;33.88;16.23;;;;;;;5.49;100.00;99417.28;4469974;32;20147;-71